M I D A S
Marine Information and Data Acquisition System
Tripno 948 of the Zeeleeuw from 2005-07-08 06:37:41 to 2005-07-08 14:21:59
Back to CruiseResearch ActivitiesStationsMapUnderway DataData graphs

EquipmentUnitsComment
TimeDGPSUTC
LatitudeDGPSDM.mWGS84
LongitudeDGPSDM.mWGS84
HeadingGyrodeg 
SOGDGPSknotsSpeed over ground
COGDGPSdegCourse over ground
DepthEcho soundermeters200 kHz
Missing or incorrect values are displayed as -999
Navigation data collected by the RV Zeeleeuw from 2005-07-08 06:32:46 to 2005-07-08 14:33:27
Time Latitude Longitude Heading SOG COG Depth
2005-07-08 06:33:51 51°13.681 2°55.905 129.4 -999 333 8.2
2005-07-08 06:34:52 51°13.681 2°55.904 130.7 -999 184 8.2
2005-07-08 06:35:51 51°13.682 2°55.904 130.4 -999 142 8.1
2005-07-08 06:36:52 51°13.682 2°55.904 128.1 -999 344 -999
2005-07-08 06:37:51 51°13.682 2°55.904 121.5 -999 188 -999
2005-07-08 06:38:51 51°13.684 2°55.896 114 0.4 289 8.2
2005-07-08 06:39:52 51°13.707 2°55.808 108 3.5 293 -999
2005-07-08 06:40:51 51°13.725 2°55.732 66.7 1.2 24 10
2005-07-08 06:41:51 51°13.72 2°55.711 19 0.5 322 10
2005-07-08 06:42:52 51°13.763 2°55.683 342.3 4.5 336 8.8
2005-07-08 06:43:51 51°13.868 2°55.621 345.5 7.8 342 9.1
2005-07-08 06:44:51 51°13.996 2°55.542 339.1 8.5 335 9.9
2005-07-08 06:45:51 51°14.137 2°55.417 334.5 10.6 330 9.6
2005-07-08 06:46:51 51°14.282 2°55.224 318 11.6 313 9.7
2005-07-08 06:47:51 51°14.403 2°54.977 311.5 12.1 306 9.4
2005-07-08 06:48:51 51°14.539 2°54.708 327 13.2 320 9.3
2005-07-08 06:49:52 51°14.716 2°54.501 335.3 -999 -999 8.7
2005-07-08 06:50:51 51°14.895 2°54.318 337.9 13 328 8.2
2005-07-08 06:51:51 51°15.076 2°54.135 335.7 12.9 326 7.7
2005-07-08 06:52:51 51°15.258 2°53.949 334.5 13.2 325 8.4
2005-07-08 06:53:51 51°15.439 2°53.751 336.5 13.3 326 9
2005-07-08 06:54:51 51°15.623 2°53.548 336 13.2 325 9.9
2005-07-08 06:55:51 51°15.806 2°53.357 339.1 13.3 328 10.2
2005-07-08 06:56:51 51°15.991 2°53.176 338.9 12.9 328 10.6
2005-07-08 06:57:51 51°16.178 2°53.003 342.5 12.9 332 11.2
2005-07-08 06:58:51 51°16.377 2°52.872 351.3 12.9 341 11.2
2005-07-08 06:59:51 51°16.582 2°52.766 352.1 12.9 343 10.4
2005-07-08 07:00:51 51°16.787 2°52.683 357.8 12.6 348 8.7
2005-07-08 07:01:51 51°16.993 2°52.609 356.7 12.7 347 9.1
2005-07-08 07:02:52 51°17.202 2°52.535 356.5 12.8 347 8.7
2005-07-08 07:03:51 51°17.406 2°52.46 356.9 12.7 347 9.1
2005-07-08 07:04:51 51°17.611 2°52.381 356.2 12.8 346 9.6
2005-07-08 07:05:51 51°17.817 2°52.351 14.5 12.3 6 9.6
2005-07-08 07:06:51 51°18.02 2°52.387 15.7 12.3 7 9.6
2005-07-08 07:07:51 51°18.223 2°52.417 14.5 12.1 3 9.8
2005-07-08 07:08:51 51°18.422 2°52.439 15.3 11.8 4 10.3
2005-07-08 07:09:51 51°18.622 2°52.46 15.3 12 4 10.7
2005-07-08 07:10:52 51°18.825 2°52.479 14.5 12.1 3 11.3
2005-07-08 07:11:51 51°19.025 2°52.482 12.3 12.3 359 12.2
2005-07-08 07:12:51 51°19.227 2°52.486 12.7 12.1 -999 13.3
2005-07-08 07:13:51 51°19.431 2°52.491 12.2 12.3 -999 14.1
2005-07-08 07:14:51 51°19.633 2°52.493 11.5 12.2 -999 14.4
2005-07-08 07:15:51 51°19.834 2°52.497 11.6 12.2 -999 15
2005-07-08 07:16:51 51°20.036 2°52.501 12.3 12.2 1 14.9
2005-07-08 07:17:51 51°20.24 2°52.505 11.9 12.3 1 15.4
2005-07-08 07:18:51 51°20.441 2°52.505 10.9 12.2 359 15
2005-07-08 07:19:52 51°20.649 2°52.502 11 12.4 -999 13.6
2005-07-08 07:20:51 51°20.849 2°52.508 12 12 2 13.8
2005-07-08 07:21:52 51°21.055 2°52.484 358.3 12.5 344 14.5
2005-07-08 07:22:51 51°21.225 2°52.268 329.6 13.5 319 15.9
2005-07-08 07:23:51 51°21.381 2°52.01 324.8 13.5 313 18.7
2005-07-08 07:24:51 51°21.544 2°51.761 329.5 13.3 317 21.6
2005-07-08 07:25:52 51°21.725 2°51.553 338.8 13.4 326 23
2005-07-08 07:26:51 51°21.927 2°51.44 358.5 12.9 349 23
2005-07-08 07:27:51 51°22.136 2°51.406 7.3 12.5 357 22.1
2005-07-08 07:28:52 51°22.343 2°51.432 17.4 12.5 8 22.4
2005-07-08 07:29:51 51°22.547 2°51.468 14.8 12.3 4 22.1
2005-07-08 07:30:52 51°22.753 2°51.497 15.2 12.3 5 21.9
2005-07-08 07:31:52 51°22.959 2°51.524 15.3 12.2 5 21.4
2005-07-08 07:32:51 51°23.161 2°51.549 14.9 12 5 16.6
2005-07-08 07:33:51 51°23.362 2°51.578 15 12.3 5 14
2005-07-08 07:34:51 51°23.564 2°51.609 14.3 12.2 6 14.4
2005-07-08 07:35:51 51°23.764 2°51.634 14.5 12.2 6 16.1
2005-07-08 07:36:52 51°23.969 2°51.658 13.4 12.2 2 18.2
2005-07-08 07:37:51 51°24.169 2°51.68 14.6 12.3 3 16.6
2005-07-08 07:38:52 51°24.376 2°51.702 14.2 12.2 2 20.2
2005-07-08 07:39:52 51°24.579 2°51.721 14.5 12.1 3 20.7
2005-07-08 07:40:51 51°24.779 2°51.743 14.7 12.2 5 21
2005-07-08 07:41:51 51°24.98 2°51.765 14 12.2 3 21.5
2005-07-08 07:42:52 51°25.188 2°51.798 17.4 12.4 8 21.9
2005-07-08 07:43:51 51°25.388 2°51.84 17.7 12.1 6 23.1
2005-07-08 07:44:52 51°25.589 2°51.89 20.1 12.2 12 29.5
2005-07-08 07:45:52 51°25.778 2°52.003 34 11.9 27 26.5
2005-07-08 07:46:51 51°25.946 2°52.154 35.5 11.9 31 25.6
2005-07-08 07:47:52 51°26.124 2°52.305 35.9 11.9 27 26.4
2005-07-08 07:48:51 51°26.296 2°52.461 37 12.1 30 26.2
2005-07-08 07:49:51 51°26.47 2°52.621 36.9 12.2 31 27
2005-07-08 07:50:51 51°26.646 2°52.779 35.6 12 31 27.2
2005-07-08 07:51:52 51°26.825 2°52.932 37 11.9 29 27.7
2005-07-08 07:52:51 51°26.998 2°53.085 36.8 11.9 27 27.1
2005-07-08 07:53:51 51°27.17 2°53.242 36.8 11.9 30 24.4
2005-07-08 07:54:52 51°27.349 2°53.376 30.8 11.9 23 26.5
2005-07-08 07:55:52 51°27.53 2°53.504 31.5 11.8 25 21.4
2005-07-08 07:56:52 51°27.711 2°53.634 31.2 11.9 24 21.6
2005-07-08 07:57:51 51°27.89 2°53.764 30.4 12 24 20
2005-07-08 07:58:51 51°28.07 2°53.898 31.7 12.1 24 21.8
2005-07-08 07:59:51 51°28.252 2°54.032 31.2 12 26 20.2
2005-07-08 08:00:51 51°28.434 2°54.167 30.5 11.9 25 20.5
2005-07-08 08:01:51 51°28.615 2°54.301 30.5 12.2 25 23
2005-07-08 08:02:51 51°28.796 2°54.436 31.2 12.2 25 24.5
2005-07-08 08:03:51 51°28.978 2°54.569 29.3 11.9 23 25.3
2005-07-08 08:04:51 51°29.164 2°54.697 29.1 12.2 25 26.4
2005-07-08 08:05:51 51°29.348 2°54.821 29.7 12 24 27.2
2005-07-08 08:06:51 51°29.533 2°54.945 29.6 11.9 24 26.7
2005-07-08 08:07:51 51°29.717 2°55.067 29.4 12 23 27.3
2005-07-08 08:08:51 51°29.9 2°55.188 29.8 11.8 24 28.2
2005-07-08 08:09:51 51°30.082 2°55.311 28.6 11.9 21 28.8
2005-07-08 08:10:51 51°30.265 2°55.431 29.7 12.2 22 32.6
2005-07-08 08:11:51 51°30.449 2°55.556 29.8 11.9 25 33.7
2005-07-08 08:12:51 51°30.634 2°55.675 29.2 12 23 35.5
2005-07-08 08:13:51 51°30.814 2°55.798 28.9 11.8 21 37.2
2005-07-08 08:14:52 51°30.998 2°55.914 28.7 11.6 21 33.1
2005-07-08 08:15:51 51°31.178 2°56.027 28.2 11.7 20 24
2005-07-08 08:16:52 51°31.366 2°56.124 24 11.8 17 17.2
2005-07-08 08:17:51 51°31.494 2°56.201 30.7 6.2 27 14.5
2005-07-08 08:18:51 51°31.578 2°56.251 13.4 5.2 4 14.6
2005-07-08 08:19:51 51°31.657 2°56.277 24.1 4.8 17 15.1
2005-07-08 08:20:51 51°31.721 2°56.333 54.3 3.7 59 17.9
2005-07-08 08:21:51 51°31.734 2°56.369 36.5 -999 355 16.8
2005-07-08 08:22:51 51°31.73 2°56.367 20 0.6 211 16.5
2005-07-08 08:23:51 51°31.719 2°56.358 18.9 0.7 219 17.4
2005-07-08 08:24:51 51°31.706 2°56.348 23.2 1.3 210 18
2005-07-08 08:25:51 51°31.764 2°56.438 51.4 6.7 53 18.4
2005-07-08 08:26:52 51°31.836 2°56.61 51 8.1 54 17.8
2005-07-08 08:27:51 51°31.887 2°56.814 67.8 8.5 73 18
2005-07-08 08:28:51 51°31.928 2°56.994 60.9 5 64 17
2005-07-08 08:29:51 51°31.932 2°57.038 82.2 1 144 16.4
2005-07-08 08:30:51 51°31.908 2°57.049 99.6 1.6 171 17
2005-07-08 08:31:51 51°31.883 2°57.055 95.3 1.6 174 16.6
2005-07-08 08:32:51 51°31.859 2°57.055 80.5 1.6 180 14.5
2005-07-08 08:33:51 51°31.837 2°57.054 64.5 1.2 187 14.7
2005-07-08 08:34:51 51°31.816 2°57.048 58.9 1.3 193 15.9
2005-07-08 08:35:52 51°31.808 2°57.059 46.6 1.2 74 16.5
2005-07-08 08:36:51 51°31.889 2°57.17 40.3 7.7 37 16.8
2005-07-08 08:37:51 51°32.001 2°57.314 43.4 8.8 40 15.7
2005-07-08 08:38:51 51°32.095 2°57.457 47.6 6.5 47 14.8
2005-07-08 08:39:51 51°32.126 2°57.497 18.6 0.7 356 15.6
2005-07-08 08:40:51 51°32.129 2°57.484 5.1 0.7 256 15.7
2005-07-08 08:41:52 51°32.123 2°57.466 4.3 0.9 225 15.9
2005-07-08 08:42:51 51°32.12 2°57.449 2.8 1.4 329 16.3
2005-07-08 08:43:51 51°32.165 2°57.516 57.3 5.4 61 15.7
2005-07-08 08:44:51 51°32.245 2°57.698 52.9 9 54 15.4
2005-07-08 08:45:52 51°32.341 2°57.9 54.5 9.4 54 14.2
2005-07-08 08:46:51 51°32.431 2°58.1 54.9 9.3 54 14.7
2005-07-08 08:47:52 51°32.521 2°58.305 57.5 9.4 59 13.8
2005-07-08 08:48:51 51°32.562 2°58.547 83.8 9.9 87 15.1
2005-07-08 08:49:51 51°32.577 2°58.809 80.7 9.8 84 21
2005-07-08 08:50:51 51°32.599 2°59.061 78.6 9.5 82 31.8
2005-07-08 08:51:51 51°32.624 2°59.308 80.3 9.4 84 32
2005-07-08 08:52:51 51°32.64 2°59.495 72.8 6.1 78 32.2
2005-07-08 08:53:51 51°32.669 2°59.626 66.7 4.6 70 32.4
2005-07-08 08:54:51 51°32.671 2°59.656 60 0.6 120 32.2
2005-07-08 08:55:52 51°32.662 2°59.659 58.4 0.5 176 32.2
2005-07-08 08:56:51 51°32.648 2°59.654 56.3 1 196 32.2
2005-07-08 08:57:51 51°32.635 2°59.643 50 0.9 211 32.3
2005-07-08 08:58:51 51°32.619 2°59.631 53.1 1 196 32.1
2005-07-08 08:59:52 51°32.604 2°59.62 54 1 202 32.5
2005-07-08 09:00:52 51°32.59 2°59.61 54.4 0.9 201 32.6
2005-07-08 09:01:51 51°32.576 2°59.602 56 0.9 191 33.2
2005-07-08 09:02:51 51°32.562 2°59.593 56 0.9 195 33.6
2005-07-08 09:03:51 51°32.548 2°59.587 59.6 0.9 192 33.7
2005-07-08 09:04:51 51°32.547 2°59.615 61.7 2 73 33.6
2005-07-08 09:05:51 51°32.603 2°59.697 37.7 6 30 32.7
2005-07-08 09:06:52 51°32.702 2°59.819 35 7.7 29 31.7
2005-07-08 09:07:52 51°32.803 2°59.953 47.8 8.1 44 32.9
2005-07-08 09:08:52 51°32.903 3°0.084 37.1 6.9 31 32.5
2005-07-08 09:09:51 51°32.958 3°0.164 46.9 3.3 45 33.3
2005-07-08 09:10:51 51°32.97 3°0.173 23.5 -999 -999 33.2
2005-07-08 09:11:51 51°32.966 3°0.153 16.6 0.9 249 33.4
2005-07-08 09:12:51 51°32.953 3°0.129 21 1.3 228 33.1
2005-07-08 09:13:51 51°32.935 3°0.107 29.8 1.4 220 33.1
2005-07-08 09:14:51 51°32.944 3°0.143 57.3 3.5 65 33.4
2005-07-08 09:15:51 51°33.022 3°0.283 48.2 8 46 33.6
2005-07-08 09:16:51 51°33.106 3°0.46 52.6 8.5 53 32.8
2005-07-08 09:17:52 51°33.195 3°0.638 51.4 8.2 50 33.4
2005-07-08 09:18:51 51°33.256 3°0.77 54.3 4.6 55 33.7
2005-07-08 09:19:51 51°33.267 3°0.785 29.7 0.4 293 33.9
2005-07-08 09:20:52 51°33.264 3°0.766 21.9 0.8 241 33.8
2005-07-08 09:21:51 51°33.251 3°0.743 25.6 1.2 227 33.6
2005-07-08 09:22:51 51°33.231 3°0.718 32 1.6 217 33.7
2005-07-08 09:23:52 51°33.208 3°0.692 42.2 1.9 215 33.7
2005-07-08 09:24:51 51°33.182 3°0.663 52.9 1.9 217 33.3
2005-07-08 09:25:52 51°33.154 3°0.634 63.8 2 213 33.3
2005-07-08 09:26:52 51°33.153 3°0.67 60.2 3.9 60 33.5
2005-07-08 09:27:51 51°33.231 3°0.771 43.9 7.6 40 33.9
2005-07-08 09:28:52 51°33.328 3°0.932 51.5 8.4 49 34.4
2005-07-08 09:29:51 51°33.418 3°1.102 51.5 -999 -999 34.2
2005-07-08 09:30:52 51°33.51 3°1.279 51.4 8.5 50 34.9
2005-07-08 09:31:52 51°33.574 3°1.398 42.5 3.6 42 34.9
2005-07-08 09:32:52 51°33.58 3°1.411 34.7 0.1 207 34.7
2005-07-08 09:33:51 51°33.574 3°1.402 34 0.8 217 34.7
2005-07-08 09:34:51 51°33.56 3°1.386 35.5 1.1 210 35.1
2005-07-08 09:35:51 51°33.54 3°1.368 41.6 1.5 209 35.1
2005-07-08 09:36:51 51°33.537 3°1.353 4.8 0.8 303 35.3
2005-07-08 09:37:51 51°33.584 3°1.344 31.7 3.7 30 34.9
2005-07-08 09:38:52 51°33.567 3°1.441 125 5.5 147 35
2005-07-08 09:39:52 51°33.465 3°1.411 215.5 6.2 215 35.1
2005-07-08 09:40:52 51°33.431 3°1.374 233.8 0.9 176 -999
2005-07-08 09:41:51 51°33.414 3°1.367 229.7 1.1 209 35.1
2005-07-08 09:42:52 51°33.393 3°1.353 229.1 1.3 207 34.9
2005-07-08 09:43:51 51°33.373 3°1.338 225.7 1.3 210 34.6
2005-07-08 09:44:51 51°33.353 3°1.322 220 1.2 210 34.7
2005-07-08 09:45:52 51°33.333 3°1.303 211.4 1.6 214 34.7
2005-07-08 09:46:51 51°33.309 3°1.279 206.1 2.2 209 34.8
2005-07-08 09:47:51 51°33.257 3°1.228 215.5 4.4 213 34.5
2005-07-08 09:48:52 51°33.192 3°1.13 236.6 5.9 227 34.3
2005-07-08 09:49:51 51°33.139 3°0.999 256.5 6 237 33.7
2005-07-08 09:50:52 51°33.1 3°0.87 263.9 5 248 33
2005-07-08 09:51:52 51°33.066 3°0.756 263.5 4.5 244 32.9
2005-07-08 09:52:51 51°33.036 3°0.661 264.9 3.9 241 32.6
2005-07-08 09:53:52 51°33.007 3°0.581 266.6 3.4 235 33.1
2005-07-08 09:54:52 51°32.978 3°0.513 265.9 3 237 32.8
2005-07-08 09:55:51 51°32.95 3°0.454 265.7 2.8 229 33.4
2005-07-08 09:56:51 51°32.922 3°0.394 267.3 2.9 230 32.8
2005-07-08 09:57:52 51°32.894 3°0.335 268.6 2.8 232 33.3
2005-07-08 09:58:52 51°32.866 3°0.275 271.3 2.8 233 33.5
2005-07-08 09:59:52 51°32.84 3°0.213 272.9 2.9 235 33.2
2005-07-08 10:00:52 51°32.814 3°0.145 274.2 3.3 233 32.8
2005-07-08 10:01:51 51°32.789 3°0.077 277.5 2.9 244 33.5
2005-07-08 10:02:51 51°32.765 3°0.007 277.1 3.1 237 33.2
2005-07-08 10:03:51 51°32.74 2°59.94 276.5 3 240 33.1
2005-07-08 10:04:52 51°32.715 2°59.871 273.1 3 237 32.9
2005-07-08 10:05:52 51°32.689 2°59.805 270 3 235 32.6
2005-07-08 10:06:52 51°32.661 2°59.742 270.4 2.8 237 32.5
2005-07-08 10:07:52 51°32.636 2°59.673 269.8 3.4 246 32.6
2005-07-08 10:08:51 51°32.612 2°59.573 275 4.3 254 33
2005-07-08 10:09:52 51°32.595 2°59.453 280.3 4.6 259 33.4
2005-07-08 10:10:51 51°32.584 2°59.329 284.3 4.8 263 33.4
2005-07-08 10:11:52 51°32.581 2°59.202 292.9 4.6 272 33.8
2005-07-08 10:12:51 51°32.588 2°59.088 297.5 4.2 275 33.4
2005-07-08 10:13:52 51°32.594 2°58.982 299 3.6 274 29.3
2005-07-08 10:14:51 51°32.594 2°58.902 302.6 2.9 268 23.7
2005-07-08 10:15:51 51°32.588 2°58.841 301.8 2.2 254 20.6
2005-07-08 10:16:52 51°32.576 2°58.788 298.3 2.1 246 20.3
2005-07-08 10:17:52 51°32.56 2°58.746 298.2 1.8 233 20.5
2005-07-08 10:18:51 51°32.543 2°58.711 297.7 1.8 227 20.7
2005-07-08 10:19:52 51°32.524 2°58.681 299.7 1.4 221 21.3
2005-07-08 10:20:51 51°32.505 2°58.654 299.7 1.6 221 21.7
2005-07-08 10:21:52 51°32.485 2°58.63 301.5 1.6 218 21.9
2005-07-08 10:22:51 51°32.467 2°58.601 302.7 2 244 20.2
2005-07-08 10:23:51 51°32.45 2°58.516 266.3 4.1 247 17.3
2005-07-08 10:24:51 51°32.412 2°58.401 263.4 4.9 244 17.9
2005-07-08 10:25:51 51°32.385 2°58.287 270.9 -999 -999 16.2
2005-07-08 10:26:52 51°32.352 2°58.177 260.2 4.6 242 16.1
2005-07-08 10:27:51 51°32.31 2°58.083 249.6 4.2 232 13.3
2005-07-08 10:28:51 51°32.268 2°58.007 248.7 3.8 222 16.5
2005-07-08 10:29:51 51°32.232 2°57.946 252 3 225 16.5
2005-07-08 10:30:52 51°32.198 2°57.891 252.8 2.9 220 15.6
2005-07-08 10:31:51 51°32.163 2°57.844 253.5 2.7 218 16.3
2005-07-08 10:32:52 51°32.132 2°57.8 256.5 2.4 224 15.8
2005-07-08 10:33:52 51°32.101 2°57.757 256.4 2.4 222 16.6
2005-07-08 10:34:51 51°32.073 2°57.715 260.6 2.3 226 16.2
2005-07-08 10:35:51 51°32.044 2°57.672 262.8 2.5 221 17.8
2005-07-08 10:36:52 51°32.017 2°57.626 265.7 2.3 226 17.8
2005-07-08 10:37:51 51°31.99 2°57.582 265.6 2.3 228 17.3
2005-07-08 10:38:51 51°31.964 2°57.53 266.5 2.7 235 17.8
2005-07-08 10:39:52 51°31.936 2°57.464 269.9 2.9 239 18.3
2005-07-08 10:40:51 51°31.911 2°57.394 268.4 3 246 18.6
2005-07-08 10:41:51 51°31.886 2°57.325 267.5 3 239 18.5
2005-07-08 10:42:51 51°31.86 2°57.257 267.8 3.1 235 18.3
2005-07-08 10:43:51 51°31.833 2°57.189 266.5 3.1 237 15.6
2005-07-08 10:44:51 51°31.804 2°57.119 265.6 3.3 239 17.5
2005-07-08 10:45:51 51°31.778 2°57.031 269.9 3.8 247 19.1
2005-07-08 10:46:52 51°31.759 2°56.926 283 4 256 17.8
2005-07-08 10:47:51 51°31.754 2°56.825 296.1 3.7 271 17.8
2005-07-08 10:48:52 51°31.761 2°56.729 310 3.4 280 18.1
2005-07-08 10:49:51 51°31.777 2°56.649 320.5 3.3 289 18.4
2005-07-08 10:50:51 51°31.785 2°56.596 327.2 1.6 275 18.1
2005-07-08 10:51:52 51°31.803 2°56.558 -999 2.6 353 18.4
2005-07-08 10:52:52 51°31.879 2°56.638 34.2 6.8 36 18.9
2005-07-08 10:53:52 51°32.019 2°56.778 35.5 10.3 33 19.8
2005-07-08 10:54:51 51°32.156 2°56.947 38.8 10.5 39 20.1
2005-07-08 10:55:52 51°32.297 2°57.122 38.5 10.4 38 19.9
2005-07-08 10:56:52 51°32.434 2°57.294 39.2 10.6 38 19.3
2005-07-08 10:57:51 51°32.572 2°57.469 40.1 10.6 39 19.3
2005-07-08 10:58:52 51°32.714 2°57.646 38.2 10.6 37 19.7
2005-07-08 10:59:52 51°32.853 2°57.816 38.8 10.5 38 19
2005-07-08 11:00:51 51°32.969 2°57.96 36.8 7.3 37 19.2
2005-07-08 11:01:52 51°33.03 2°58.037 38.5 3.9 42 17.8
2005-07-08 11:02:52 51°33.063 2°58.091 36.6 1.9 44 18.9
2005-07-08 11:03:51 51°33.065 2°58.107 46.7 0.8 141 19.2
2005-07-08 11:04:52 51°33.051 2°58.117 58.6 1.1 160 19.1
2005-07-08 11:05:52 51°33.033 2°58.124 60.3 1.2 172 18.4
2005-07-08 11:06:51 51°33.018 2°58.138 55.8 1.1 113 18.5
2005-07-08 11:07:52 51°33.048 2°58.182 26.5 3.4 28 19.5
2005-07-08 11:08:52 51°33.107 2°58.23 34.6 3.9 34 19.7
2005-07-08 11:09:52 51°33.147 2°58.292 37.5 3.2 43 17.3
2005-07-08 11:10:52 51°33.178 2°58.345 41.9 2.6 50 16.7
2005-07-08 11:11:52 51°33.203 2°58.394 38.4 2.4 48 18.7
2005-07-08 11:12:51 51°33.232 2°58.449 40.7 2.9 47 19
2005-07-08 11:13:51 51°33.262 2°58.506 39.3 2.7 50 17.9
2005-07-08 11:14:52 51°33.291 2°58.561 38.5 2.8 48 18.6
2005-07-08 11:15:51 51°33.322 2°58.614 37.4 2.8 46 18.3
2005-07-08 11:16:51 51°33.354 2°58.661 35.1 2.6 40 17.7
2005-07-08 11:17:51 51°33.386 2°58.711 35.5 2.6 42 17.9
2005-07-08 11:18:51 51°33.418 2°58.762 35.5 2.8 44 19.5
2005-07-08 11:19:52 51°33.452 2°58.814 34.8 2.8 43 16.5
2005-07-08 11:20:52 51°33.485 2°58.862 34.4 2.6 41 19.4
2005-07-08 11:21:51 51°33.518 2°58.91 34.8 2.7 42 20.7
2005-07-08 11:22:52 51°33.551 2°58.961 35.5 2.7 44 19.1
2005-07-08 11:23:51 51°33.585 2°59.007 33.4 2.7 38 18.1
2005-07-08 11:24:51 51°33.618 2°59.055 35.8 2.7 45 19.4
2005-07-08 11:25:52 51°33.651 2°59.105 36.1 2.8 44 20.1
2005-07-08 11:26:52 51°33.683 2°59.153 35.7 2.5 45 19.4
2005-07-08 11:27:52 51°33.716 2°59.201 35.5 2.7 42 19.1
2005-07-08 11:28:52 51°33.75 2°59.25 35.3 2.9 42 18.5
2005-07-08 11:29:51 51°33.783 2°59.305 41.8 2.8 55 19.7
2005-07-08 11:30:51 51°33.807 2°59.374 52.2 3.1 64 19.9
2005-07-08 11:31:52 51°33.822 2°59.457 61.1 3.4 80 19.5
2005-07-08 11:32:51 51°33.829 2°59.548 71.7 3.7 90 19
2005-07-08 11:33:52 51°33.823 2°59.64 77.4 3 102 17
2005-07-08 11:34:52 51°33.811 2°59.7 73 2 111 16.6
2005-07-08 11:35:52 51°33.806 2°59.756 53.7 2.4 85 16.8
2005-07-08 11:36:51 51°33.887 2°59.78 359.7 8.5 353 15.5
2005-07-08 11:37:52 51°34.059 2°59.726 353.1 10.7 347 20.7
2005-07-08 11:38:52 51°34.234 2°59.65 352.8 11 345 23.2
2005-07-08 11:39:52 51°34.41 2°59.575 354.5 11.2 346 24
2005-07-08 11:40:52 51°34.592 2°59.498 353.3 11.4 346 24.8
2005-07-08 11:41:51 51°34.774 2°59.421 354.5 11.3 346 27.6
2005-07-08 11:42:52 51°34.95 2°59.293 331.5 11.8 325 28.1
2005-07-08 11:43:52 51°34.989 2°59.09 271.3 7.3 268 30.3
2005-07-08 11:44:52 51°34.957 2°58.992 233.9 1.6 232 31.2
2005-07-08 11:45:52 51°34.946 2°58.979 223.7 1.1 223 -999
2005-07-08 11:46:52 51°34.929 2°58.96 233.8 1.3 218 4.8
2005-07-08 11:47:52 51°34.909 2°58.94 241.9 1.6 207 30.4
2005-07-08 11:48:52 51°34.887 2°58.919 247.4 1.6 209 30.2
2005-07-08 11:49:52 51°34.862 2°58.879 251.8 3.3 235 29.4
2005-07-08 11:50:51 51°34.822 2°58.759 254.7 5.7 247 29.8
2005-07-08 11:51:51 51°34.787 2°58.611 262.6 5.9 252 30.2
2005-07-08 11:52:51 51°34.759 2°58.476 260.4 5.2 246 29.1
2005-07-08 11:53:52 51°34.729 2°58.35 261.4 4.8 248 27.8
2005-07-08 11:54:52 51°34.702 2°58.239 263.4 4.4 253 30.3
2005-07-08 11:55:51 51°34.678 2°58.136 262.7 3.9 248 31.9
2005-07-08 11:56:52 51°34.656 2°58.053 262.8 3 247 31.3
2005-07-08 11:57:52 51°34.634 2°57.986 258 2.7 244 31.4
2005-07-08 11:58:51 51°34.61 2°57.928 252.2 2.6 239 31.2
2005-07-08 11:59:52 51°34.584 2°57.869 248.2 2.7 230 29.2
2005-07-08 12:00:52 51°34.558 2°57.808 252 2.7 237 31.2
2005-07-08 12:01:52 51°34.533 2°57.746 251.8 2.8 233 30.9
2005-07-08 12:02:52 51°34.507 2°57.683 254.5 2.8 238 30.1
2005-07-08 12:03:52 51°34.482 2°57.62 251.7 2.9 238 30.6
2005-07-08 12:04:51 51°34.455 2°57.56 246 2.8 233 31.8
2005-07-08 12:05:51 51°34.427 2°57.503 243 2.8 228 31.1
2005-07-08 12:06:51 51°34.397 2°57.446 240 2.8 231 30.1
2005-07-08 12:07:52 51°34.365 2°57.388 238 2.8 230 31.4
2005-07-08 12:08:52 51°34.333 2°57.335 233.5 2.8 223 30.8
2005-07-08 12:09:52 51°34.296 2°57.271 237.2 3.8 230 28.2
2005-07-08 12:10:52 51°34.262 2°57.174 257.9 4.3 248 28.7
2005-07-08 12:11:51 51°34.239 2°57.064 264.8 4.4 253 30.9
2005-07-08 12:12:51 51°34.221 2°56.948 270.9 4.6 255 30.8
2005-07-08 12:13:51 51°34.216 2°56.832 285.2 4.3 269 29.4
2005-07-08 12:14:51 51°34.225 2°56.721 298 4.2 279 31.3
2005-07-08 12:15:52 51°34.246 2°56.617 309.3 3.9 291 30.9
2005-07-08 12:16:52 51°34.264 2°56.545 314.6 2.6 288 30.8
2005-07-08 12:17:52 51°34.273 2°56.493 314.9 1.8 285 31
2005-07-08 12:18:51 51°34.281 2°56.439 313.5 2.5 292 31.1
2005-07-08 12:19:52 51°34.348 2°56.261 309.5 9.9 301 32.6
2005-07-08 12:20:51 51°34.393 2°55.98 284.1 12.6 277 32.3
2005-07-08 12:21:51 51°34.418 2°55.632 277.7 13.1 272 34
2005-07-08 12:22:51 51°34.449 2°55.29 291.7 12.9 286 33.6
2005-07-08 12:23:51 51°34.517 2°54.963 293.5 12.8 288 31.6
2005-07-08 12:24:51 51°34.582 2°54.707 309 8 304 32.1
2005-07-08 12:25:51 51°34.665 2°54.593 341.7 6.9 338 32
2005-07-08 12:26:51 51°34.735 2°54.61 37.2 3.2 29 34.4
2005-07-08 12:27:52 51°34.758 2°54.66 58.5 1.9 56 35.3
2005-07-08 12:28:52 51°34.761 2°54.674 54.9 0.4 139 36.1
2005-07-08 12:29:51 51°34.756 2°54.677 70.6 0.4 163 35.2
2005-07-08 12:30:52 51°34.749 2°54.68 87.9 0.4 155 35.9
2005-07-08 12:31:52 51°34.742 2°54.685 94.7 0.5 162 36.4
2005-07-08 12:32:51 51°34.734 2°54.69 101.2 0.6 161 35.6
2005-07-08 12:33:51 51°34.738 2°54.733 59.5 2.7 59 34
2005-07-08 12:34:51 51°34.778 2°54.752 350.6 1.1 352 31.4
2005-07-08 12:35:53 51°34.768 2°54.763 315.8 0.6 304 -999
2005-07-08 12:36:52 51°34.77 2°54.709 262.3 2.2 259 32
2005-07-08 12:37:51 51°34.763 2°54.663 266.9 1.6 258 36.2
2005-07-08 12:38:52 51°34.758 2°54.655 270.3 0.5 116 35.8
2005-07-08 12:39:52 51°34.753 2°54.664 267.9 0.4 143 33.8
2005-07-08 12:40:52 51°34.747 2°54.67 265.1 0.4 147 35
2005-07-08 12:41:51 51°34.741 2°54.676 263.8 0.3 143 35.7
2005-07-08 12:42:52 51°34.733 2°54.67 264.4 1.6 246 35.9
2005-07-08 12:43:52 51°34.665 2°54.574 209.9 8.8 206 32.4
2005-07-08 12:44:51 51°34.474 2°54.528 186.7 13.3 185 33.8
2005-07-08 12:45:51 51°34.257 2°54.514 182.6 13.3 182 32.9
2005-07-08 12:46:52 51°34.034 2°54.516 182.4 13.2 176 31.7
2005-07-08 12:47:51 51°33.817 2°54.508 182.3 13.2 180 30.9
2005-07-08 12:48:52 51°33.594 2°54.498 185.7 13.2 182 30.4
2005-07-08 12:49:51 51°33.375 2°54.494 185.7 13.8 185 29.7
2005-07-08 12:50:51 51°33.155 2°54.49 183.7 13.1 182 29
2005-07-08 12:51:51 51°32.934 2°54.485 184.3 13.3 181 27.1
2005-07-08 12:52:51 51°32.714 2°54.48 184.8 13.2 179 26.6
2005-07-08 12:53:51 51°32.491 2°54.481 185 13.4 181 24.7
2005-07-08 12:54:51 51°32.269 2°54.484 183.6 13.6 177 24.1
2005-07-08 12:55:52 51°32.047 2°54.485 184.3 12.8 180 23.8
2005-07-08 12:56:51 51°31.828 2°54.491 182.3 13.3 178 23.5
2005-07-08 12:57:51 51°31.607 2°54.495 184.3 13.1 180 22.7
2005-07-08 12:58:52 51°31.384 2°54.499 185.3 13.7 179 21.8
2005-07-08 12:59:52 51°31.16 2°54.52 183.6 13.4 175 21.3
2005-07-08 13:00:51 51°30.946 2°54.508 191 13 186 21.5
2005-07-08 13:01:52 51°30.725 2°54.482 190 13.5 182 29.4
2005-07-08 13:02:51 51°30.511 2°54.454 191.9 13.3 188 35.8
2005-07-08 13:03:52 51°30.3 2°54.421 188.8 12.8 184 35.4
2005-07-08 13:04:52 51°30.09 2°54.392 188.5 12.6 185 34.3
2005-07-08 13:05:52 51°29.883 2°54.364 190.2 12.6 188 34.6
2005-07-08 13:06:51 51°29.678 2°54.334 188.7 12.7 184 32.6
2005-07-08 13:07:51 51°29.469 2°54.299 190.2 12.8 185 31.4
2005-07-08 13:08:52 51°29.258 2°54.264 190 12.7 185 30.3
2005-07-08 13:09:52 51°29.048 2°54.228 190.4 12.7 186 28.7
2005-07-08 13:10:52 51°28.842 2°54.192 189.6 12.6 186 27.4
2005-07-08 13:11:52 51°28.632 2°54.192 184.2 12.5 180 26.5
2005-07-08 13:12:51 51°28.424 2°54.191 184 13 182 23.7
2005-07-08 13:13:52 51°28.211 2°54.186 184.5 12.3 178 23.8
2005-07-08 13:14:52 51°28 2°54.192 184.6 12.6 181 21.1
2005-07-08 13:15:52 51°27.794 2°54.19 184.7 12.7 180 24.9
2005-07-08 13:16:52 51°27.589 2°54.193 185.3 12.8 179 27.4
2005-07-08 13:17:52 51°27.381 2°54.191 185.9 12.6 181 28.6
2005-07-08 13:18:51 51°27.176 2°54.196 183.9 12.4 179 27.5
2005-07-08 13:19:52 51°26.97 2°54.2 186.5 12.6 178 27
2005-07-08 13:20:52 51°26.762 2°54.205 185 12.8 178 30
2005-07-08 13:21:52 51°26.553 2°54.207 184.9 12.8 181 33.3
2005-07-08 13:22:51 51°26.35 2°54.21 185.8 12.2 180 28.4
2005-07-08 13:23:51 51°26.141 2°54.207 187.5 12.6 184 26.1
2005-07-08 13:24:51 51°25.929 2°54.203 185.2 12.9 178 24.4
2005-07-08 13:25:52 51°25.719 2°54.204 184.1 12.8 177 24.5
2005-07-08 13:26:51 51°25.511 2°54.195 183.7 12.8 183 23.4
2005-07-08 13:27:51 51°25.301 2°54.188 185.7 12.3 181 24
2005-07-08 13:28:52 51°25.087 2°54.181 185.8 12.5 183 23.6
2005-07-08 13:29:51 51°24.876 2°54.18 186.7 12.5 184 21.4
2005-07-08 13:30:52 51°24.662 2°54.176 185.5 13.1 181 20.3
2005-07-08 13:31:51 51°24.452 2°54.173 185.5 12.3 181 21.9
2005-07-08 13:32:52 51°24.239 2°54.175 186.7 12.2 179 24
2005-07-08 13:33:51 51°24.037 2°54.174 184.3 12 178 24
2005-07-08 13:34:51 51°23.833 2°54.178 184 12.1 181 22.7
2005-07-08 13:35:51 51°23.628 2°54.162 186.5 11.6 182 22.7
2005-07-08 13:36:51 51°23.424 2°54.141 190.1 12.1 184 22.8
2005-07-08 13:37:52 51°23.217 2°54.124 188.3 12.6 185 23.1
2005-07-08 13:38:52 51°23.014 2°54.087 192 12.1 190 23
2005-07-08 13:39:52 51°22.81 2°54.057 192.5 12 185 25.1
2005-07-08 13:40:52 51°22.607 2°54.026 191 12 183 25.4
2005-07-08 13:41:52 51°22.406 2°54.002 190.9 12.4 184 23.5
2005-07-08 13:42:52 51°22.2 2°53.971 190.9 12.2 185 21.9
2005-07-08 13:43:52 51°21.998 2°53.941 191.7 11.8 181 21.8
2005-07-08 13:44:51 51°21.801 2°53.908 189.7 12.3 189 20.1
2005-07-08 13:45:52 51°21.597 2°53.875 192.2 12.5 187 19.4
2005-07-08 13:46:52 51°21.396 2°53.849 189.3 12.2 183 19.3
2005-07-08 13:47:52 51°21.195 2°53.818 190.8 12.4 184 19.3
2005-07-08 13:48:52 51°20.994 2°53.794 190.5 12.3 184 19.3
2005-07-08 13:49:51 51°20.795 2°53.767 191.1 12.1 185 19.3
2005-07-08 13:50:51 51°20.595 2°53.739 190.9 12.1 185 19
2005-07-08 13:51:52 51°20.392 2°53.714 191.8 12.3 187 18.9
2005-07-08 13:52:52 51°20.193 2°53.686 192.1 12.5 185 18.4
2005-07-08 13:53:52 51°19.993 2°53.663 190.6 12.3 185 17.8
2005-07-08 13:54:52 51°19.789 2°53.636 188.7 12.2 182 16.7
2005-07-08 13:55:51 51°19.587 2°53.606 191.8 11.9 184 16
2005-07-08 13:56:52 51°19.382 2°53.577 190.5 12.4 184 15.3
2005-07-08 13:57:52 51°19.179 2°53.552 190.6 12.3 185 14.8
2005-07-08 13:58:51 51°18.975 2°53.522 191.3 12.5 188 14.6
2005-07-08 13:59:51 51°18.771 2°53.504 188.3 12.3 184 14.1
2005-07-08 14:00:51 51°18.567 2°53.474 190.9 12 188 13.9
2005-07-08 14:01:52 51°18.363 2°53.441 193 11.4 184 13.6
2005-07-08 14:02:52 51°18.164 2°53.391 195 11.6 188 13.2
2005-07-08 14:03:51 51°17.968 2°53.345 192.9 11.9 188 13
2005-07-08 14:04:52 51°17.762 2°53.321 187.6 11.9 183 12.7
2005-07-08 14:05:51 51°17.561 2°53.308 188.1 12.2 184 12.3
2005-07-08 14:06:51 51°17.358 2°53.293 188.6 12.2 181 12
2005-07-08 14:07:52 51°17.15 2°53.336 177.8 12.4 170 11.2
2005-07-08 14:08:51 51°16.952 2°53.394 177.7 12.5 170 10.8
2005-07-08 14:09:52 51°16.744 2°53.457 175.7 13 169 14
2005-07-08 14:10:52 51°16.538 2°53.514 177.5 12.9 170 14.4
2005-07-08 14:11:52 51°16.331 2°53.57 178.2 12.8 170 14.4
2005-07-08 14:12:51 51°16.126 2°53.628 177.3 12.5 170 14.4
2005-07-08 14:13:51 51°15.918 2°53.703 174.9 13 166 14
2005-07-08 14:14:52 51°15.71 2°53.783 173.3 12.4 163 13.5
2005-07-08 14:15:52 51°15.505 2°53.88 168.6 13 161 13
2005-07-08 14:16:51 51°15.314 2°54.033 158.3 12.6 148 12.2
2005-07-08 14:17:51 51°15.121 2°54.208 160.3 13.3 152 11.5
2005-07-08 14:18:51 51°14.935 2°54.38 158.1 13.1 149 11.5
2005-07-08 14:19:52 51°14.755 2°54.585 152.9 12.8 142 12.2
2005-07-08 14:20:52 51°14.578 2°54.785 152.7 13.1 143 12.3
2005-07-08 14:21:51 51°14.416 2°54.973 150.9 12.1 143 13.2
2005-07-08 14:22:51 51°14.296 2°55.181 130.6 9.7 130 13.1
2005-07-08 14:23:51 51°14.192 2°55.349 148.4 8.6 143 13.6
2005-07-08 14:24:52 51°14.082 2°55.433 158.7 6.9 155 12.6
2005-07-08 14:25:51 51°13.982 2°55.507 157.6 6.7 156 13.7
2005-07-08 14:26:51 51°13.881 2°55.588 156 7.3 153 12.5
2005-07-08 14:27:51 51°13.768 2°55.691 145.7 8.2 145 12.1
2005-07-08 14:28:52 51°13.68 2°55.837 129.9 8.1 134 11.8
2005-07-08 14:29:52 51°13.636 2°55.936 130.9 4.1 126 11.9
2005-07-08 14:30:52 51°13.604 2°56.022 114.8 3.7 115 12.2
2005-07-08 14:31:52 51°13.597 2°56.094 95.5 1.5 95 9.2
2005-07-08 14:32:52 51°13.596 2°56.104 111.1 0.4 126 9